Time;durP1;ratioP1;P1;durP2;ratioP2;P2;SDS_P1;SDS_P2;PMS_P1;PMS_P2;Temp;Humidity;BMP_temperature;BMP_pressure;BME280_temperature;BME280_humidity;BME280_pressure;Samples;Min_cycle;Max_cycle;Signal;HPM_P1;HPM_P2
2021/12/18 00:00:30;;;;;;;14.57;3.97;;;;;;;7.25;99.67;103987.56;5095884;28;20028;-66
2021/12/18 00:02:55;;;;;;;11.20;3.83;;;;;;;7.23;99.75;103977.97;5095751;28;20463;-67
2021/12/18 00:05:21;;;;;;;10.45;3.20;;;;;;;7.22;99.77;103984.25;5095486;28;20085;-67
2021/12/18 00:07:46;;;;;;;7.90;2.90;;;;;;;7.20;99.69;103967.56;5095618;28;20593;-67
2021/12/18 00:10:12;;;;;;;11.25;3.88;;;;;;;7.18;99.86;103970.34;5095519;28;20425;-67
2021/12/18 00:12:39;;;;;;;9.50;3.67;;;;;;;7.16;100.00;103964.25;5095475;28;20031;-67
2021/12/18 00:15:05;;;;;;;5.30;3.03;;;;;;;7.18;99.71;103973.00;5095544;28;20095;-67
2021/12/18 00:17:30;;;;;;;10.32;3.25;;;;;;;7.16;99.62;103961.59;5095208;28;20111;-67
2021/12/18 00:19:55;;;;;;;10.80;3.90;;;;;;;7.18;99.69;103974.78;5095384;28;20467;-67
2021/12/18 00:22:21;;;;;;;11.98;4.07;;;;;;;7.16;99.75;103963.41;5095538;28;20069;-67
2021/12/18 00:24:46;;;;;;;7.85;2.72;;;;;;;7.17;99.79;103968.59;5095469;28;20078;-67
2021/12/18 00:27:11;;;;;;;6.93;3.38;;;;;;;7.14;99.88;103960.84;5095420;28;20055;-67
2021/12/18 00:29:37;;;;;;;10.52;4.43;;;;;;;7.13;100.00;103958.31;5095406;28;20035;-67
2021/12/18 00:32:02;;;;;;;8.68;2.85;;;;;;;7.14;100.00;103954.69;5094925;28;20028;-67
2021/12/18 00:34:28;;;;;;;12.30;3.55;;;;;;;7.14;99.98;103952.03;5095145;28;20102;-67
2021/12/18 00:36:53;;;;;;;7.72;3.42;;;;;;;7.14;99.75;103954.69;5095155;28;20047;-67
2021/12/18 00:39:19;;;;;;;7.85;3.10;;;;;;;7.10;99.87;103948.72;5094536;28;20059;-67
2021/12/18 00:44:12;;;;;;;8.43;2.95;;;;;;;7.12;100.00;103938.84;5094939;28;20078;-67
2021/12/18 00:46:41;;;;;;;7.63;2.40;;;;;;;7.08;100.00;103929.41;5095059;28;20039;-67
2021/12/18 00:49:09;;;;;;;9.98;3.58;;;;;;;7.09;99.99;103940.84;5094935;28;20020;-67
2021/12/18 00:51:35;;;;;;;9.10;4.05;;;;;;;7.13;100.00;103947.69;5094866;28;20351;-67
2021/12/18 00:54:01;;;;;;;9.30;2.72;;;;;;;7.09;99.99;103944.34;5094725;28;20020;-66
2021/12/18 00:56:27;;;;;;;10.48;4.00;;;;;;;7.15;99.97;103943.09;5094623;28;20050;-67
2021/12/18 00:58:52;;;;;;;11.27;4.05;;;;;;;7.11;99.89;103931.00;5094701;28;20032;-67
2021/12/18 01:01:20;;;;;;;11.65;3.58;;;;;;;7.11;99.83;103936.31;5094682;28;20028;-67
2021/12/18 01:03:48;;;;;;;10.52;3.72;;;;;;;7.10;100.00;103931.94;5094746;28;20452;-67
2021/12/18 01:06:15;;;;;;;7.68;3.63;;;;;;;7.08;100.00;103924.09;5094549;28;20024;-67
2021/12/18 01:08:41;;;;;;;8.32;3.35;;;;;;;7.08;99.94;103921.44;5094174;28;20034;-67
2021/12/18 01:13:44;;;;;;;10.45;4.05;;;;;;;7.07;100.00;103916.22;5094663;28;20475;-67
2021/12/18 01:16:17;;;;;;;11.70;3.42;;;;;;;7.10;100.00;103919.53;5094448;28;20032;-67
2021/12/18 01:24:10;;;;;;;11.35;4.07;;;;;;;7.10;100.00;103916.00;5094587;28;20046;-67
2021/12/18 01:26:36;;;;;;;14.20;5.53;;;;;;;7.10;100.00;103926.63;5094230;28;20027;-67
2021/12/18 01:29:01;;;;;;;10.07;3.45;;;;;;;7.08;100.00;103916.13;5094238;28;20093;-67
2021/12/18 01:31:26;;;;;;;12.45;5.13;;;;;;;7.12;100.00;103920.28;5094195;28;20022;-67
2021/12/18 01:33:52;;;;;;;11.27;3.45;;;;;;;7.10;100.00;103927.50;5094365;28;20039;-67
2021/12/18 01:36:17;;;;;;;9.20;3.90;;;;;;;7.11;100.00;103920.38;5094074;28;20390;-67
2021/12/18 01:38:43;;;;;;;13.88;4.53;;;;;;;7.10;99.96;103924.84;5093951;28;20171;-67
2021/12/18 01:41:08;;;;;;;9.15;3.55;;;;;;;7.08;99.75;103928.56;5093797;28;20125;-67
2021/12/18 01:52:32;;;;;;;10.90;5.32;;;;;;;7.07;100.00;103943.59;5093382;28;20082;-67
2021/12/18 01:54:21;;;;;;;10.57;3.75;;;;;;;7.06;100.00;103944.56;5088611;28;20066;-67
2021/12/18 01:56:47;;;;;;;14.73;5.43;;;;;;;7.06;100.00;103947.22;5093658;28;20408;-67
2021/12/18 01:59:12;;;;;;;10.90;4.28;;;;;;;7.07;100.00;103959.53;5093160;28;20548;-67
2021/12/18 02:01:38;;;;;;;11.77;4.10;;;;;;;7.02;100.00;103946.56;5093392;28;20509;-67
2021/12/18 02:04:03;;;;;;;9.95;3.72;;;;;;;7.06;100.00;103957.81;5093525;28;20391;-67
2021/12/18 02:06:29;;;;;;;11.23;4.60;;;;;;;7.06;100.00;103957.81;5093601;28;20043;-67
2021/12/18 02:08:54;;;;;;;11.20;4.22;;;;;;;7.05;100.00;103953.47;5093219;28;20035;-67
2021/12/18 02:11:28;;;;;;;10.43;3.78;;;;;;;7.03;100.00;103950.06;5093253;28;20088;-67
2021/12/18 02:19:48;;;;;;;11.00;4.03;;;;;;;6.98;100.00;103950.34;5092714;28;20081;-67
2021/12/18 02:22:15;;;;;;;9.32;3.30;;;;;;;6.97;100.00;103953.97;5093219;28;20035;-67
2021/12/18 02:24:41;;;;;;;13.48;5.68;;;;;;;6.97;100.00;103958.41;5093201;28;20055;-67
2021/12/18 02:27:07;;;;;;;11.57;4.40;;;;;;;6.90;100.00;103944.66;5093271;28;20099;-67
2021/12/18 02:29:36;;;;;;;10.57;4.07;;;;;;;6.92;100.00;103940.13;5093217;28;20039;-67
2021/12/18 02:32:02;;;;;;;13.55;4.00;;;;;;;6.86;100.00;103937.84;5093093;28;20058;-67
2021/12/18 02:34:30;;;;;;;11.55;5.18;;;;;;;6.86;100.00;103948.44;5093145;28;20032;-67
2021/12/18 02:37:02;;;;;;;11.20;5.07;;;;;;;6.84;100.00;103938.88;5093092;28;20536;-67
2021/12/18 02:40:43;;;;;;;11.40;5.35;;;;;;;6.82;100.00;103936.34;5091905;28;20148;-67
2021/12/18 02:42:32;;;;;;;11.63;4.35;;;;;;;6.82;100.00;103938.16;5091923;28;20445;-67
2021/12/18 02:44:57;;;;;;;12.07;4.68;;;;;;;6.80;100.00;103938.22;5093085;28;20115;-67
2021/12/18 02:47:23;;;;;;;12.85;4.97;;;;;;;6.78;100.00;103930.34;5092792;28;20438;-67
2021/12/18 02:49:51;;;;;;;13.65;4.60;;;;;;;6.78;100.00;103926.84;5093084;28;20028;-67
2021/12/18 02:52:18;;;;;;;10.70;3.67;;;;;;;6.77;100.00;103922.50;5092961;28;20031;-67
2021/12/18 02:54:44;;;;;;;11.80;5.38;;;;;;;6.77;100.00;103922.50;5093047;28;20438;-67
2021/12/18 02:57:13;;;;;;;12.68;4.80;;;;;;;6.74;100.00;103904.16;5092890;28;20059;-67
2021/12/18 02:59:43;;;;;;;10.55;3.53;;;;;;;6.77;100.00;103906.59;5092889;28;20020;-67
2021/12/18 03:02:09;;;;;;;10.95;4.65;;;;;;;6.75;100.00;103905.84;5095272;28;20027;-67
2021/12/18 03:04:37;;;;;;;11.23;4.03;;;;;;;6.77;100.00;103906.59;5097011;28;20028;-67
2021/12/18 03:07:05;;;;;;;11.80;3.78;;;;;;;6.76;100.00;103903.09;5096941;28;20027;-67
2021/12/18 03:19:03;;;;;;;11.93;4.55;;;;;;;6.79;100.00;103904.72;5096901;28;20142;-67
2021/12/18 03:25:30;;;;;;;15.50;5.15;;;;;;;6.73;100.00;103900.66;5096777;28;20089;-67
2021/12/18 03:27:59;;;;;;;14.52;5.07;;;;;;;6.74;100.00;103893.53;5096621;28;20107;-67
2021/12/18 03:30:25;;;;;;;13.48;5.47;;;;;;;6.74;100.00;103898.84;5096459;28;20099;-67
2021/12/18 03:32:50;;;;;;;12.02;4.32;;;;;;;6.75;100.00;103905.84;5096491;28;20103;-67
2021/12/18 03:35:16;;;;;;;12.90;5.25;;;;;;;6.73;100.00;103900.66;5096480;28;20063;-67
2021/12/18 03:37:43;;;;;;;11.48;4.68;;;;;;;6.77;100.00;103899.47;5096348;28;20058;-67
2021/12/18 03:40:11;;;;;;;12.02;5.03;;;;;;;6.77;100.00;103903.94;5095734;28;20036;-66
2021/12/18 03:42:37;;;;;;;13.98;5.07;;;;;;;6.77;100.00;103909.25;5095544;28;20451;-67
2021/12/18 03:45:05;;;;;;;11.68;4.45;;;;;;;6.78;100.00;103909.13;5095389;28;20059;-67
2021/12/18 03:47:30;;;;;;;12.32;5.30;;;;;;;6.70;100.00;103892.84;5095942;28;20032;-67
2021/12/18 03:49:55;;;;;;;19.10;6.63;;;;;;;6.77;100.00;103907.44;5095866;28;20075;-67
2021/12/18 03:52:21;;;;;;;17.42;5.60;;;;;;;6.74;100.00;103893.53;5096123;28;20073;-67
2021/12/18 03:54:46;;;;;;;17.60;5.93;;;;;;;6.74;100.00;103899.69;5095947;28;20111;-67
2021/12/18 03:57:12;;;;;;;18.02;5.95;;;;;;;6.74;100.00;103904.16;5094538;28;20498;-67
2021/12/18 03:59:37;;;;;;;14.32;5.35;;;;;;;6.72;100.00;103906.88;5095844;28;20028;-67
2021/12/18 04:02:02;;;;;;;20.65;6.38;;;;;;;6.73;100.00;103902.41;5094740;28;20136;-67
2021/12/18 04:04:28;;;;;;;17.10;5.95;;;;;;;6.73;100.00;103905.06;5095870;28;20028;-67
2021/12/18 04:06:54;;;;;;;16.13;5.53;;;;;;;6.73;100.00;103908.59;5094545;28;20032;-67
2021/12/18 04:09:19;;;;;;;14.07;5.15;;;;;;;6.73;100.00;103907.72;5095838;28;20052;-67
2021/12/18 04:11:45;;;;;;;14.57;4.72;;;;;;;6.73;100.00;103895.34;5094422;28;20024;-67
2021/12/18 04:14:12;;;;;;;16.90;5.28;;;;;;;6.72;100.00;103901.56;5094676;28;20024;-67
2021/12/18 04:16:37;;;;;;;16.88;6.18;;;;;;;6.69;100.00;103887.66;5094492;28;20020;-66
2021/12/18 04:19:04;;;;;;;17.48;5.97;;;;;;;6.72;100.00;103895.41;5095582;28;20031;-67
2021/12/18 04:21:31;;;;;;;16.38;5.10;;;;;;;6.74;100.00;103899.69;5095354;28;20035;-67
2021/12/18 04:23:57;;;;;;;17.08;5.65;;;;;;;6.71;100.00;103896.38;5095040;28;20043;-67
2021/12/18 04:26:22;;;;;;;15.23;5.10;;;;;;;6.72;100.00;103906.88;5095420;28;20028;-67
2021/12/18 04:28:48;;;;;;;16.02;5.13;;;;;;;6.74;100.00;103906.78;5095419;28;20380;-67
2021/12/18 04:31:14;;;;;;;16.00;6.13;;;;;;;6.71;100.00;103905.19;5095367;28;20489;-67
2021/12/18 04:33:39;;;;;;;17.30;4.60;;;;;;;6.76;100.00;103915.50;5095276;28;20120;-67
2021/12/18 04:36:05;;;;;;;11.88;4.18;;;;;;;6.78;100.00;103908.28;5095267;28;20111;-67
2021/12/18 04:38:31;;;;;;;13.82;5.15;;;;;;;6.79;100.00;103908.22;5095177;28;20454;-67
2021/12/18 04:40:57;;;;;;;14.35;5.72;;;;;;;6.79;100.00;103907.34;5094881;28;20051;-67
2021/12/18 04:43:23;;;;;;;17.98;6.00;;;;;;;6.68;100.00;103905.38;5093847;28;20074;-67
2021/12/18 04:45:49;;;;;;;14.50;5.07;;;;;;;6.73;100.00;103907.72;5094993;28;20020;-67
2021/12/18 04:48:14;;;;;;;17.63;5.68;;;;;;;6.76;100.00;103913.72;5095020;28;20052;-67
2021/12/18 04:50:39;;;;;;;16.65;6.80;;;;;;;6.77;100.00;103917.22;5094965;28;20027;-67
2021/12/18 04:53:05;;;;;;;16.70;5.60;;;;;;;6.77;100.00;103911.91;5094968;28;20036;-67
2021/12/18 04:55:30;;;;;;;16.42;5.57;;;;;;;6.78;100.00;103913.59;5095001;28;20024;-67
2021/12/18 04:57:55;;;;;;;17.27;5.72;;;;;;;6.76;100.00;103918.16;5094501;28;20031;-67
2021/12/18 05:00:29;;;;;;;15.35;4.30;;;;;;;6.76;100.00;103919.00;5094576;28;20084;-67
2021/12/18 05:02:55;;;;;;;15.10;5.60;;;;;;;6.74;100.00;103915.59;5094526;28;20039;-67
2021/12/18 05:05:21;;;;;;;14.80;4.88;;;;;;;6.73;100.00;103913.91;5094557;28;20024;-66
2021/12/18 05:07:46;;;;;;;15.57;5.43;;;;;;;6.76;100.00;103926.97;5094569;28;20024;-67
2021/12/18 05:10:13;;;;;;;13.43;4.88;;;;;;;6.77;100.00;103928.66;5094297;28;20020;-67
2021/12/18 05:12:39;;;;;;;13.30;4.78;;;;;;;6.76;100.00;103926.13;5094585;28;20168;-67
2021/12/18 05:15:06;;;;;;;15.63;4.80;;;;;;;6.72;100.00;103920.13;5092920;28;20391;-67
2021/12/18 05:17:32;;;;;;;14.68;4.03;;;;;;;6.66;100.00;103915.22;5094220;28;20024;-67
2021/12/18 05:19:57;;;;;;;13.57;5.32;;;;;;;6.67;100.00;103916.06;5094297;28;20081;-67
2021/12/18 05:22:23;;;;;;;13.63;4.43;;;;;;;6.67;100.00;103914.25;5094102;28;20101;-67
2021/12/18 05:24:48;;;;;;;17.58;5.97;;;;;;;6.61;100.00;103906.69;5093090;28;20032;-67
2021/12/18 05:27:13;;;;;;;14.45;4.53;;;;;;;6.67;100.00;103919.56;5094045;28;20042;-67
2021/12/18 05:29:39;;;;;;;18.20;5.18;;;;;;;6.66;100.00;103915.22;5094196;28;20024;-67
2021/12/18 05:32:04;;;;;;;17.92;5.63;;;;;;;6.65;100.00;103917.97;5094156;28;20433;-67
2021/12/18 05:34:36;;;;;;;15.45;5.38;;;;;;;6.62;100.00;103912.84;5094113;28;20364;-67
2021/12/18 05:37:15;;;;;;;;;;;;;;;6.68;100.00;103923.06;5094551;28;20043;-67
2021/12/18 05:39:41;;;;;;;14.25;3.92;;;;;;;6.66;100.00;103922.34;5093905;28;20321;-67
2021/12/18 05:42:07;;;;;;;15.68;4.35;;;;;;;6.66;100.00;103925.00;5092497;28;20052;-67
2021/12/18 05:44:32;;;;;;;17.30;6.05;;;;;;;6.65;100.00;103929.41;5093863;28;20111;-67
2021/12/18 05:46:58;;;;;;;12.52;5.00;;;;;;;6.65;100.00;103917.97;5093843;28;20024;-67
2021/12/18 05:49:23;;;;;;;16.98;6.20;;;;;;;6.63;100.00;103928.69;5093841;28;20024;-67
2021/12/18 05:51:49;;;;;;;16.25;4.70;;;;;;;6.63;100.00;103919.84;5093882;28;20416;-67
2021/12/18 05:54:14;;;;;;;14.52;4.63;;;;;;;6.64;100.00;103921.56;5093825;28;20031;-67
2021/12/18 05:56:41;;;;;;;13.70;4.97;;;;;;;6.61;100.00;103917.31;5093749;28;20115;-67
2021/12/18 05:59:06;;;;;;;16.45;5.22;;;;;;;6.61;100.00;103919.13;5093497;28;20028;-67
2021/12/18 06:01:32;;;;;;;18.95;4.90;;;;;;;6.58;100.00;103917.50;5093524;28;20042;-67
2021/12/18 06:03:58;;;;;;;16.10;5.25;;;;;;;6.57;100.00;103916.63;5093619;28;20032;-67
2021/12/18 06:06:24;;;;;;;15.70;5.57;;;;;;;6.58;100.00;103928.97;5093497;28;20039;-67
2021/12/18 06:08:50;;;;;;;17.83;5.95;;;;;;;6.57;100.00;103916.63;5093563;28;20048;-67
2021/12/18 06:11:17;;;;;;;14.93;4.57;;;;;;;6.55;100.00;103917.69;5092945;28;20066;-67
2021/12/18 06:13:47;;;;;;;13.75;4.47;;;;;;;6.55;100.00;103915.03;5093188;28;20039;-67
2021/12/18 06:16:14;;;;;;;16.35;4.18;;;;;;;6.54;100.00;103910.66;5093338;28;20444;-67
2021/12/18 06:18:42;;;;;;;10.68;3.60;;;;;;;6.50;100.00;103904.72;5092913;28;20043;-67
2021/12/18 06:21:09;;;;;;;10.55;3.60;;;;;;;6.51;100.00;103903.75;5093362;28;20028;-67
2021/12/18 06:23:35;;;;;;;12.98;3.67;;;;;;;6.49;100.00;103900.34;5093114;28;20032;-67
2021/12/18 06:26:00;;;;;;;12.30;4.00;;;;;;;6.52;100.00;103908.13;5092743;28;20039;-67
2021/12/18 06:28:26;;;;;;;10.82;3.53;;;;;;;6.51;100.00;103900.25;5092512;28;20468;-66
2021/12/18 06:30:52;;;;;;;12.20;3.60;;;;;;;6.51;100.00;103901.09;5093134;28;20024;-67
2021/12/18 06:33:18;;;;;;;11.38;3.85;;;;;;;6.51;100.00;103900.25;5093195;28;20035;-67
2021/12/18 06:35:43;;;;;;;11.07;3.40;;;;;;;6.52;100.00;103905.47;5092972;28;20028;-67
2021/12/18 06:38:09;;;;;;;12.07;3.72;;;;;;;6.48;100.00;103903.09;5093041;28;20024;-67
2021/12/18 06:40:34;;;;;;;12.93;4.72;;;;;;;6.49;100.00;103907.44;5092909;28;20044;-68
2021/12/18 06:43:00;;;;;;;13.70;3.50;;;;;;;6.52;100.00;103909.91;5093100;28;20536;-67
2021/12/18 06:45:25;;;;;;;10.65;3.40;;;;;;;6.45;100.00;103890.03;5093074;28;20073;-67
2021/12/18 06:47:51;;;;;;;13.77;4.35;;;;;;;6.55;100.00;103907.09;5093038;28;20028;-67
2021/12/18 06:50:17;;;;;;;11.05;3.88;;;;;;;6.55;100.00;103910.59;5092954;28;20463;-67
2021/12/18 06:52:42;;;;;;;11.15;2.88;;;;;;;6.59;100.00;103911.25;5093062;28;20093;-66
2021/12/18 06:55:08;;;;;;;13.13;4.25;;;;;;;6.61;100.00;103916.47;5093041;28;20110;-67
2021/12/18 06:57:34;;;;;;;9.35;3.15;;;;;;;6.61;100.00;103911.16;5092982;28;20028;-67
2021/12/18 06:59:59;;;;;;;9.93;2.75;;;;;;;6.58;100.00;103906.91;5088189;28;20497;-66
2021/12/18 07:02:25;;;;;;;10.98;2.97;;;;;;;6.61;100.00;103904.06;5051469;28;20037;-67
2021/12/18 07:04:51;;;;;;;12.98;3.92;;;;;;;6.58;100.00;103902.44;5068459;28;20028;-67
2021/12/18 07:07:16;;;;;;;12.77;3.78;;;;;;;6.63;100.00;103909.25;5088750;28;20115;-67
2021/12/18 07:09:42;;;;;;;12.13;4.30;;;;;;;6.62;100.00;103905.75;5089125;28;20024;-67
2021/12/18 07:12:10;;;;;;;13.10;4.00;;;;;;;6.62;100.00;103907.53;5088756;28;20426;-67
2021/12/18 07:14:35;;;;;;;12.75;3.70;;;;;;;6.62;100.00;103911.03;5087624;28;20045;-67
2021/12/18 07:17:01;;;;;;;12.50;4.72;;;;;;;6.59;100.00;103906.78;5089045;28;20032;-66
2021/12/18 07:19:26;;;;;;;10.30;3.55;;;;;;;6.58;100.00;103905.09;5089039;28;20145;-66
2021/12/18 07:21:52;;;;;;;13.23;3.70;;;;;;;6.57;100.00;103911.31;5088849;28;20033;-67
2021/12/18 07:24:17;;;;;;;12.93;3.38;;;;;;;6.56;100.00;103914.09;5087621;28;20071;-67
2021/12/18 07:26:42;;;;;;;16.08;5.85;;;;;;;6.47;100.00;103902.25;5088777;28;20039;-66
2021/12/18 07:29:08;;;;;;;11.48;4.47;;;;;;;6.57;100.00;103913.13;5088496;28;20028;-66
2021/12/18 07:31:34;;;;;;;15.43;4.45;;;;;;;6.55;100.00;103915.88;5088681;28;20368;-67
2021/12/18 07:33:59;;;;;;;10.80;4.13;;;;;;;6.55;100.00;103912.41;5089071;28;20039;-66
2021/12/18 07:36:24;;;;;;;10.38;3.92;;;;;;;6.55;100.00;103915.88;5088929;28;20476;-67
2021/12/18 07:38:50;;;;;;;8.45;2.67;;;;;;;6.56;100.00;103920.25;5088662;28;20040;-67
2021/12/18 07:41:15;;;;;;;9.82;3.40;;;;;;;6.56;100.00;103925.53;5088676;28;20052;-67
2021/12/18 07:43:41;;;;;;;12.10;3.50;;;;;;;6.52;100.00;103918.75;5088730;28;20032;-67
2021/12/18 07:46:06;;;;;;;9.73;3.42;;;;;;;6.55;100.00;103915.03;5088740;28;20085;-66
2021/12/18 07:48:32;;;;;;;9.68;3.10;;;;;;;6.56;100.00;103919.38;5072376;28;20055;-66
2021/12/18 07:50:57;;;;;;;11.82;3.97;;;;;;;6.56;100.00;103919.38;5092331;28;20034;-67
2021/12/18 07:53:24;;;;;;;11.15;3.75;;;;;;;6.57;100.00;103923.72;5092256;28;20031;-68
2021/12/18 07:55:50;;;;;;;11.65;4.68;;;;;;;6.60;100.00;103923.53;5092163;28;20047;-67
2021/12/18 07:58:15;;;;;;;11.70;3.13;;;;;;;6.59;100.00;103924.50;5092159;28;20164;-67
2021/12/18 08:00:41;;;;;;;10.88;3.83;;;;;;;6.61;100.00;103924.41;5092728;28;20123;-67
2021/12/18 08:03:06;;;;;;;12.40;4.28;;;;;;;6.61;100.00;103922.63;5095857;28;20043;-67
2021/12/18 08:05:32;;;;;;;10.82;3.15;;;;;;;6.60;100.00;103920.88;5095407;28;20031;-67
2021/12/18 08:07:57;;;;;;;15.27;4.07;;;;;;;6.65;100.00;103929.41;5095609;28;20028;-67
2021/12/18 08:10:23;;;;;;;9.88;3.67;;;;;;;6.67;100.00;103918.72;5095230;28;20027;-67
2021/12/18 08:12:48;;;;;;;10.52;4.03;;;;;;;6.68;100.00;103923.94;5095221;28;20129;-67
2021/12/18 08:15:13;;;;;;;10.02;3.70;;;;;;;6.68;100.00;103923.94;5095545;28;20113;-67
2021/12/18 08:17:39;;;;;;;13.98;3.90;;;;;;;6.69;100.00;103915.03;5095602;28;20096;-68
2021/12/18 08:20:06;;;;;;;8.77;2.85;;;;;;;6.73;100.00;103913.91;5095471;28;20098;-67
2021/12/18 08:22:32;;;;;;;13.38;3.53;;;;;;;6.77;100.00;103918.06;5094924;28;20036;-68
2021/12/18 08:24:57;;;;;;;12.65;4.75;;;;;;;6.81;100.00;103926.66;5095314;28;20399;-67
2021/12/18 08:27:22;;;;;;;11.82;3.83;;;;;;;6.83;100.00;103926.56;5094191;28;20035;-67
2021/12/18 08:29:48;;;;;;;11.05;3.25;;;;;;;6.86;100.00;103921.91;5095251;28;20086;-67
2021/12/18 08:32:13;;;;;;;9.02;3.25;;;;;;;6.88;100.00;103924.50;5094712;28;20032;-67
2021/12/18 08:34:39;;;;;;;13.50;3.85;;;;;;;6.88;100.00;103921.84;5095264;28;20039;-67
2021/12/18 08:37:04;;;;;;;10.00;3.53;;;;;;;6.89;100.00;103924.41;5095333;28;20031;-67
2021/12/18 08:39:30;;;;;;;10.93;3.60;;;;;;;6.90;100.00;103926.09;5094984;28;20028;-67
2021/12/18 08:41:58;;;;;;;14.18;4.22;;;;;;;6.88;100.00;103919.19;5094943;28;20044;-67
2021/12/18 08:44:23;;;;;;;13.00;3.22;;;;;;;6.89;100.00;103927.06;5095011;28;20111;-67
2021/12/18 08:46:49;;;;;;;11.13;3.42;;;;;;;6.86;100.00;103921.91;5093705;28;20123;-67
2021/12/18 08:49:15;;;;;;;7.63;3.20;;;;;;;6.83;100.00;103924.78;5094958;28;20028;-67
2021/12/18 08:51:41;;;;;;;10.18;3.92;;;;;;;6.76;100.00;103915.50;5094762;28;20052;-67
2021/12/18 08:54:06;;;;;;;7.97;2.40;;;;;;;6.78;100.00;103924.19;5094343;28;20509;-67
2021/12/18 08:56:32;;;;;;;10.50;2.03;;;;;;;6.74;100.00;103912.09;5094757;28;20024;-66
2021/12/18 08:59:00;;;;;;;7.90;2.38;;;;;;;6.71;100.00;103917.59;5094598;28;20028;-67
2021/12/18 09:01:26;;;;;;;8.75;3.17;;;;;;;6.74;100.00;103920.91;5094768;28;20054;-67
2021/12/18 09:03:52;;;;;;;6.63;2.33;;;;;;;6.72;100.00;103920.13;5094474;28;20066;-66
2021/12/18 09:06:17;;;;;;;7.85;2.17;;;;;;;6.73;100.00;103923.63;5094271;28;20031;-66
2021/12/18 09:08:42;;;;;;;7.25;2.50;;;;;;;6.72;100.00;103922.78;5094277;28;20471;-67
2021/12/18 09:11:08;;;;;;;8.10;2.20;;;;;;;6.71;100.00;103922.91;5094023;28;20483;-67
2021/12/18 09:13:33;;;;;;;4.70;1.23;;;;;;;6.74;100.00;103928.84;5093121;28;20054;-68
2021/12/18 09:15:59;;;;;;;6.00;2.13;;;;;;;6.79;100.00;103926.78;5093490;28;20031;-67
2021/12/18 09:18:24;;;;;;;6.22;2.28;;;;;;;6.80;100.00;103917.00;5093042;28;20020;-67
2021/12/18 09:20:49;;;;;;;4.80;1.90;;;;;;;6.80;100.00;103927.63;5094343;28;20020;-67
2021/12/18 09:23:17;;;;;;;3.17;1.30;;;;;;;6.76;100.00;103921.66;5094237;28;20024;-67
2021/12/18 09:25:44;;;;;;;6.60;1.88;;;;;;;6.74;100.00;103922.72;5094249;28;20024;-68
2021/12/18 09:28:09;;;;;;;6.30;1.95;;;;;;;6.74;100.00;103920.91;5094253;28;20067;-68
2021/12/18 09:30:35;;;;;;;6.90;1.90;;;;;;;6.76;100.00;103928.78;5092985;28;20455;-68
2021/12/18 09:33:00;;;;;;;7.57;2.45;;;;;;;6.77;100.00;103923.34;5094064;28;20036;-67
2021/12/18 09:35:26;;;;;;;4.28;1.70;;;;;;;6.78;100.00;103916.25;5094069;28;20414;-68
2021/12/18 09:37:52;;;;;;;6.00;1.70;;;;;;;6.83;100.00;103927.44;5093861;28;20379;-68
2021/12/18 09:40:19;;;;;;;3.20;1.50;;;;;;;6.79;100.00;103921.47;5093640;28;20107;-67
2021/12/18 09:42:45;;;;;;;6.50;1.83;;;;;;;6.77;100.00;103928.66;5093828;28;20024;-68
2021/12/18 09:45:11;;;;;;;3.75;1.33;;;;;;;6.82;100.00;103924.88;5093830;28;20030;-68
2021/12/18 09:47:38;;;;;;;2.05;0.93;;;;;;;6.86;100.00;103923.72;5093802;28;20077;-68
2021/12/18 09:50:04;;;;;;;2.92;1.33;;;;;;;6.87;100.00;103915.69;5093729;28;20020;-68
2021/12/18 09:52:31;;;;;;;5.10;1.70;;;;;;;6.86;100.00;103921.06;5093593;28;20533;-68
2021/12/18 09:54:58;;;;;;;3.22;1.25;;;;;;;6.87;100.00;103913.03;5093617;28;20047;-68
2021/12/18 09:57:24;;;;;;;1.98;1.23;;;;;;;6.88;100.00;103919.19;5093643;28;20032;-67
2021/12/18 09:59:49;;;;;;;4.93;1.35;;;;;;;6.91;100.00;103919.84;5093558;28;20088;-68
2021/12/18 10:02:15;;;;;;;3.15;1.35;;;;;;;6.89;100.00;103916.44;5093695;28;20452;-67
2021/12/18 10:04:41;;;;;;;2.97;1.20;;;;;;;6.90;100.00;103912.84;5093559;28;20079;-67
2021/12/18 10:07:15;;;;;;;6.25;1.92;;;;;;;6.94;100.00;103910.81;5093503;28;20024;-67
2021/12/18 10:09:41;;;;;;;3.85;1.67;;;;;;;6.94;100.00;103908.19;5093316;28;20465;-67
2021/12/18 10:12:17;;;;;;;1.52;1.35;;;;;;;6.96;100.00;103908.94;5091691;28;20081;-67
2021/12/18 10:14:58;;;;;;;2.53;1.30;;;;;;;6.98;100.00;103899.94;5093376;28;20027;-67
2021/12/18 10:17:24;;;;;;;4.47;1.80;;;;;;;7.06;100.00;103901.25;5093416;28;20032;-67
2021/12/18 10:19:51;;;;;;;2.55;1.40;;;;;;;7.14;100.00;103897.16;5093193;28;20387;-68
2021/12/18 10:22:17;;;;;;;5.47;1.60;;;;;;;7.15;100.00;103896.22;5093269;28;20028;-68
2021/12/18 10:24:44;;;;;;;6.47;2.10;;;;;;;7.20;100.00;103894.13;5092129;28;20035;-67
2021/12/18 10:27:28;;;;;;;4.43;1.63;;;;;;;7.20;100.00;103896.78;5093244;28;20031;-67
2021/12/18 10:30:06;;;;;;;6.97;2.30;;;;;;;7.12;100.00;103899.03;5093192;28;20395;-67
2021/12/18 10:32:31;;;;;;;5.75;2.25;;;;;;;6.98;100.00;103889.31;5093032;28;20032;-68
2021/12/18 10:34:58;;;;;;;3.35;1.55;;;;;;;6.99;100.00;103895.47;5092985;28;20376;-67
2021/12/18 10:37:25;;;;;;;8.35;2.50;;;;;;;6.97;100.00;103892.94;5092883;28;20024;-67
2021/12/18 10:39:50;;;;;;;6.72;2.33;;;;;;;6.96;100.00;103890.34;5092837;28;20028;-68
2021/12/18 10:42:31;;;;;;;5.20;2.05;;;;;;;6.90;100.00;103893.41;5093012;28;20498;-68
2021/12/18 10:45:15;;;;;;;3.45;1.52;;;;;;;6.77;100.00;103894.19;5091590;28;20528;-68
2021/12/18 10:48:00;;;;;;;4.38;1.50;;;;;;;6.69;100.00;103891.16;5092931;28;20463;-68
2021/12/18 10:50:48;;;;;;;5.20;2.08;;;;;;;6.63;100.00;103891.56;5092931;28;20012;-67
2021/12/18 10:53:27;;;;;;;4.05;1.30;;;;;;;6.62;100.00;103894.28;5092950;28;20429;-67
2021/12/18 10:55:54;;;;;;;4.75;1.90;;;;;;;6.61;100.00;103889.94;5092871;28;20112;-68
2021/12/18 10:58:33;;;;;;;5.72;2.38;;;;;;;6.60;100.00;103881.13;5092875;28;20020;-68
2021/12/18 11:01:14;;;;;;;6.45;2.28;;;;;;;6.66;100.00;103880.75;5092929;28;20101;-67
2021/12/18 11:03:43;;;;;;;6.80;2.50;;;;;;;6.73;100.00;103876.78;5092713;28;20043;-68
2021/12/18 11:06:32;;;;;;;5.45;1.70;;;;;;;6.84;100.00;103869.91;5092794;28;20103;-68
2021/12/18 11:09:09;;;;;;;4.85;2.50;;;;;;;6.88;100.00;103874.94;5092672;28;20016;-68
2021/12/18 11:14:11;;;;;;;6.60;1.77;;;;;;;6.96;100.00;103874.44;5092755;28;20517;-67
2021/12/18 11:16:38;;;;;;;4.40;1.88;;;;;;;7.01;100.00;103888.28;5092703;28;20028;-68
2021/12/18 11:19:12;;;;;;;5.22;1.70;;;;;;;7.02;100.00;103880.22;5092605;28;20032;-68
2021/12/18 11:21:40;;;;;;;6.65;3.25;;;;;;;7.05;100.00;103889.78;5092618;28;20032;-67
2021/12/18 11:24:07;;;;;;;6.15;2.30;;;;;;;6.98;100.00;103888.47;5094712;28;20024;-67
2021/12/18 11:26:57;;;;;;;4.45;2.35;;;;;;;6.93;100.00;103883.44;5096579;28;20387;-68
2021/12/18 11:29:44;;;;;;;5.35;2.55;;;;;;;6.90;100.00;103878.34;5093005;28;20182;-68
2021/12/18 11:32:12;;;;;;;3.30;1.83;;;;;;;6.85;100.00;103882.25;5096387;28;20406;-67
2021/12/18 11:34:39;;;;;;;4.82;2.15;;;;;;;6.81;100.00;103881.56;5096291;28;20024;-67
2021/12/18 11:37:09;;;;;;;3.95;1.63;;;;;;;6.80;100.00;103875.41;5096382;28;20020;-69
2021/12/18 11:39:36;;;;;;;5.47;1.85;;;;;;;6.79;100.00;103871.06;5096127;28;20024;-67
2021/12/18 11:42:03;;;;;;;5.22;2.10;;;;;;;6.76;100.00;103868.63;5096016;28;20040;-67
2021/12/18 11:44:30;;;;;;;3.92;1.48;;;;;;;6.70;100.00;103870.78;5094912;28;20024;-67
2021/12/18 11:46:57;;;;;;;4.72;2.00;;;;;;;6.59;100.00;103867.00;5096205;28;20479;-67
2021/12/18 11:49:26;;;;;;;5.65;2.45;;;;;;;6.51;100.00;103858.69;5095962;28;20028;-67
2021/12/18 11:52:04;;;;;;;4.07;1.95;;;;;;;6.54;100.00;103866.44;5094582;28;20449;-67
2021/12/18 11:54:45;;;;;;;3.30;1.40;;;;;;;6.53;100.00;103867.41;5095944;28;20105;-66
2021/12/18 11:57:12;;;;;;;6.57;2.80;;;;;;;6.54;100.00;103865.59;5095867;28;20020;-67
2021/12/18 11:59:42;;;;;;;5.78;2.72;;;;;;;6.54;100.00;103858.47;5095763;28;20020;-66
2021/12/18 12:02:10;;;;;;;6.50;2.72;;;;;;;6.54;100.00;103850.53;5095878;28;20442;-68